createdAt,value
2022-12-05T00:07:46.459Z,97.36
2022-12-05T00:17:53.834Z,97.44
2022-12-05T00:28:00.975Z,97.50
2022-12-05T00:38:07.424Z,97.48
2022-12-05T00:48:14.533Z,97.50
2022-12-05T00:58:21.652Z,97.45
2022-12-05T01:08:29.136Z,97.58
2022-12-05T01:18:36.109Z,97.79
2022-12-05T01:28:44.319Z,97.51
2022-12-05T01:38:51.792Z,97.81
2022-12-05T01:48:57.118Z,97.79
2022-12-05T01:59:06.869Z,97.85
2022-12-05T02:09:14.022Z,97.83
2022-12-05T02:20:04.816Z,97.85
2022-12-05T02:30:13.894Z,97.88
2022-12-05T02:40:21.143Z,97.97
2022-12-05T02:50:38.324Z,97.87
2022-12-05T03:00:49.382Z,98.04
2022-12-05T03:10:58.264Z,98.06
2022-12-05T03:21:03.973Z,97.98
2022-12-05T03:31:09.141Z,97.93
2022-12-05T03:41:15.918Z,98.22
2022-12-05T03:51:26.369Z,97.88
2022-12-05T04:01:35.796Z,98.05
2022-12-05T04:11:40.533Z,98.05
2022-12-05T04:21:53.845Z,98.01
2022-12-05T04:32:07.955Z,97.91
2022-12-05T04:42:19.486Z,98.01
2022-12-05T04:52:29.666Z,97.98
2022-12-05T05:02:39.272Z,98.22
2022-12-05T05:12:46.720Z,98.26
2022-12-05T05:22:55.177Z,98.09
2022-12-05T05:33:02.625Z,98.02
2022-12-05T05:43:09.873Z,98.11
2022-12-05T05:53:16.904Z,98.20
2022-12-05T06:03:24.172Z,98.35
2022-12-05T06:13:32.143Z,98.32
2022-12-05T06:23:40.531Z,98.11
2022-12-05T06:33:46.878Z,98.35
2022-12-05T06:43:56.253Z,98.26
2022-12-05T06:54:05.061Z,98.27
2022-12-05T07:04:15.776Z,98.32
2022-12-05T07:24:49.197Z,98.38
2022-12-05T07:34:56.377Z,98.55
2022-12-05T07:45:03.538Z,98.56
2022-12-05T07:55:11.584Z,98.57
2022-12-05T08:05:17.463Z,98.61
2022-12-05T08:15:24.462Z,98.45
2022-12-05T08:25:31.189Z,98.54
2022-12-05T08:35:39.663Z,98.67
2022-12-05T08:45:51.035Z,98.79
2022-12-05T08:56:01.259Z,98.58
2022-12-05T09:06:09.105Z,98.47
2022-12-05T09:16:19.075Z,98.47
2022-12-05T09:26:27.770Z,98.53
2022-12-05T09:36:34.923Z,98.66
2022-12-05T09:46:47.844Z,98.40
2022-12-05T09:56:55.775Z,98.18
2022-12-05T10:07:01.038Z,98.24
2022-12-05T10:17:06.260Z,98.20
2022-12-05T10:27:16.532Z,98.03
2022-12-05T10:37:25.575Z,98.08
2022-12-05T10:47:34.125Z,98.03
2022-12-05T10:57:41.993Z,98.07
2022-12-05T11:07:48.687Z,97.96
2022-12-05T11:17:58.120Z,97.79
2022-12-05T11:28:23.937Z,98.06
2022-12-05T11:38:32.359Z,98.11
2022-12-05T11:48:48.519Z,98.19
2022-12-05T11:58:57.862Z,98.10
2022-12-05T12:09:08.591Z,97.87
2022-12-05T12:19:18.090Z,97.93
2022-12-05T12:29:27.190Z,98.03
2022-12-05T12:39:35.308Z,97.88
2022-12-05T12:49:44.385Z,97.68
2022-12-05T12:59:53.448Z,97.47
2022-12-05T13:10:02.494Z,97.58
2022-12-05T13:20:15.601Z,97.89
2022-12-05T13:30:20.454Z,97.63
2022-12-05T13:40:46.783Z,97.20
2022-12-05T13:50:53.229Z,97.22
2022-12-05T14:01:30.852Z,97.19
2022-12-05T14:11:37.924Z,97.40
2022-12-05T14:32:04.721Z,97.05
2022-12-05T14:42:28.121Z,97.00
2022-12-05T14:52:35.484Z,96.97
2022-12-05T15:02:48.386Z,97.20
2022-12-05T15:12:59.226Z,96.91
2022-12-05T15:23:29.429Z,96.76
2022-12-05T15:33:37.050Z,96.81
2022-12-05T15:43:45.880Z,96.91
2022-12-05T16:04:04.204Z,97.03
2022-12-05T16:14:21.560Z,96.91
2022-12-05T16:24:43.078Z,96.83
2022-12-05T16:34:50.617Z,96.83
2022-12-05T16:44:57.244Z,97.00
2022-12-05T16:55:05.009Z,96.87
2022-12-05T17:05:15.956Z,97.05
2022-12-05T17:15:21.303Z,97.06
2022-12-05T17:25:28.684Z,96.95
2022-12-05T17:35:33.830Z,96.94
2022-12-05T17:45:41.006Z,96.94
2022-12-05T17:55:48.969Z,96.96
2022-12-05T18:05:56.172Z,97.11
2022-12-05T18:16:03.830Z,97.11
2022-12-05T18:26:12.166Z,96.82
2022-12-05T18:36:21.355Z,96.89
2022-12-05T18:46:26.212Z,96.86
2022-12-05T18:56:34.991Z,96.90
2022-12-05T19:06:43.395Z,96.93
2022-12-05T19:16:58.023Z,96.85
2022-12-05T19:27:07.598Z,96.81
2022-12-05T19:37:14.662Z,97.11
2022-12-05T19:47:21.827Z,97.13
2022-12-05T19:57:31.450Z,97.01
2022-12-05T20:07:39.012Z,96.92
2022-12-05T20:17:52.968Z,96.99
2022-12-05T20:28:00.922Z,97.02
2022-12-05T20:38:08.072Z,97.13
2022-12-05T20:48:15.200Z,97.12
2022-12-05T20:58:22.445Z,97.31
2022-12-05T21:08:29.882Z,97.35
2022-12-05T21:18:37.568Z,97.41
2022-12-05T21:28:46.019Z,97.52
2022-12-05T21:38:56.184Z,97.61
2022-12-05T21:49:03.922Z,97.57
2022-12-05T21:59:10.965Z,97.64
2022-12-05T22:09:16.977Z,97.73
2022-12-05T22:19:24.224Z,97.88
2022-12-05T22:29:31.252Z,97.98
2022-12-05T22:39:38.533Z,97.72
2022-12-05T22:49:45.724Z,97.76
2022-12-05T22:59:52.802Z,98.00
2022-12-05T23:10:00.428Z,97.91
2022-12-05T23:20:08.043Z,97.96
2022-12-05T23:30:16.793Z,97.97
2022-12-05T23:40:24.713Z,97.80
2022-12-05T23:50:32.031Z,97.88
